sensor_id;sensor_type;location;lat;lon;timestamp;P1;durP1;ratioP1;P2;durP2;ratioP2
12048;SDS011;6085;49.452;8.502;2023-05-10T00:02:39;3.78;;;2.55;;
12048;SDS011;6085;49.452;8.502;2023-05-10T00:06:41;2.58;;;2.38;;
12048;SDS011;6085;49.452;8.502;2023-05-10T00:10:44;2.55;;;2.20;;
12048;SDS011;6085;49.452;8.502;2023-05-10T00:14:46;3.55;;;2.80;;
12048;SDS011;6085;49.452;8.502;2023-05-10T00:18:48;2.47;;;2.28;;
12048;SDS011;6085;49.452;8.502;2023-05-10T00:22:50;3.00;;;2.22;;
12048;SDS011;6085;49.452;8.502;2023-05-10T00:26:53;2.28;;;2.08;;
12048;SDS011;6085;49.452;8.502;2023-05-10T00:30:55;3.22;;;2.20;;
12048;SDS011;6085;49.452;8.502;2023-05-10T00:34:57;2.08;;;1.98;;
12048;SDS011;6085;49.452;8.502;2023-05-10T00:38:59;2.15;;;1.95;;
12048;SDS011;6085;49.452;8.502;2023-05-10T00:43:04;2.47;;;2.20;;
12048;SDS011;6085;49.452;8.502;2023-05-10T00:47:06;2.13;;;1.92;;
12048;SDS011;6085;49.452;8.502;2023-05-10T00:51:09;2.15;;;1.95;;
12048;SDS011;6085;49.452;8.502;2023-05-10T00:55:11;2.30;;;2.10;;
12048;SDS011;6085;49.452;8.502;2023-05-10T00:59:16;2.35;;;2.25;;
12048;SDS011;6085;49.452;8.502;2023-05-10T01:03:17;2.13;;;2.00;;
12048;SDS011;6085;49.452;8.502;2023-05-10T01:07:19;1.88;;;1.77;;
12048;SDS011;6085;49.452;8.502;2023-05-10T01:11:21;2.00;;;1.88;;
12048;SDS011;6085;49.452;8.502;2023-05-10T01:15:25;1.92;;;1.83;;
12048;SDS011;6085;49.452;8.502;2023-05-10T01:19:27;1.55;;;1.50;;
12048;SDS011;6085;49.452;8.502;2023-05-10T01:23:36;2.30;;;1.77;;
12048;SDS011;6085;49.452;8.502;2023-05-10T01:32:36;1.73;;;1.63;;
12048;SDS011;6085;49.452;8.502;2023-05-10T01:36:45;2.38;;;1.83;;
12048;SDS011;6085;49.452;8.502;2023-05-10T01:40:55;2.00;;;1.80;;
12048;SDS011;6085;49.452;8.502;2023-05-10T01:45:07;1.80;;;1.70;;
12048;SDS011;6085;49.452;8.502;2023-05-10T01:49:20;1.98;;;1.88;;
12048;SDS011;6085;49.452;8.502;2023-05-10T01:53:24;2.60;;;2.00;;
12048;SDS011;6085;49.452;8.502;2023-05-10T01:57:27;2.17;;;2.08;;
12048;SDS011;6085;49.452;8.502;2023-05-10T02:01:33;2.30;;;2.10;;
12048;SDS011;6085;49.452;8.502;2023-05-10T02:05:40;2.40;;;2.05;;
12048;SDS011;6085;49.452;8.502;2023-05-10T02:09:44;1.80;;;1.70;;
12048;SDS011;6085;49.452;8.502;2023-05-10T02:13:48;2.33;;;2.03;;
12048;SDS011;6085;49.452;8.502;2023-05-10T02:17:51;2.13;;;1.83;;
12048;SDS011;6085;49.452;8.502;2023-05-10T02:21:57;1.90;;;1.80;;
12048;SDS011;6085;49.452;8.502;2023-05-10T02:26:00;1.90;;;1.80;;
12048;SDS011;6085;49.452;8.502;2023-05-10T02:30:04;4.22;;;2.05;;
12048;SDS011;6085;49.452;8.502;2023-05-10T02:34:08;1.98;;;1.88;;
12048;SDS011;6085;49.452;8.502;2023-05-10T02:38:13;1.90;;;1.80;;
12048;SDS011;6085;49.452;8.502;2023-05-10T02:42:15;2.15;;;2.03;;
12048;SDS011;6085;49.452;8.502;2023-05-10T02:46:19;2.40;;;2.05;;
12048;SDS011;6085;49.452;8.502;2023-05-10T02:50:21;2.42;;;2.28;;
12048;SDS011;6085;49.452;8.502;2023-05-10T02:54:29;2.50;;;2.15;;
12048;SDS011;6085;49.452;8.502;2023-05-10T02:58:34;2.67;;;2.40;;
12048;SDS011;6085;49.452;8.502;2023-05-10T03:02:36;2.40;;;2.30;;
12048;SDS011;6085;49.452;8.502;2023-05-10T03:06:38;2.58;;;2.33;;
12048;SDS011;6085;49.452;8.502;2023-05-10T03:10:44;3.85;;;2.65;;
12048;SDS011;6085;49.452;8.502;2023-05-10T03:14:57;3.10;;;2.80;;
12048;SDS011;6085;49.452;8.502;2023-05-10T03:19:06;2.60;;;2.40;;
12048;SDS011;6085;49.452;8.502;2023-05-10T03:23:13;2.45;;;2.28;;
12048;SDS011;6085;49.452;8.502;2023-05-10T03:27:26;2.35;;;2.17;;
12048;SDS011;6085;49.452;8.502;2023-05-10T03:31:28;2.70;;;2.50;;
12048;SDS011;6085;49.452;8.502;2023-05-10T03:35:30;2.55;;;2.35;;
12048;SDS011;6085;49.452;8.502;2023-05-10T03:39:32;2.20;;;2.10;;
12048;SDS011;6085;49.452;8.502;2023-05-10T03:43:36;3.15;;;2.40;;
12048;SDS011;6085;49.452;8.502;2023-05-10T03:47:38;2.88;;;2.40;;
12048;SDS011;6085;49.452;8.502;2023-05-10T03:51:40;2.50;;;2.30;;
12048;SDS011;6085;49.452;8.502;2023-05-10T03:55:42;2.60;;;2.20;;
12048;SDS011;6085;49.452;8.502;2023-05-10T03:59:46;4.20;;;2.45;;
12048;SDS011;6085;49.452;8.502;2023-05-10T04:03:48;2.70;;;2.50;;
12048;SDS011;6085;49.452;8.502;2023-05-10T04:07:50;2.92;;;2.72;;
12048;SDS011;6085;49.452;8.502;2023-05-10T04:11:52;2.83;;;2.63;;
12048;SDS011;6085;49.452;8.502;2023-05-10T04:15:56;3.70;;;2.63;;
12048;SDS011;6085;49.452;8.502;2023-05-10T04:19:58;2.88;;;2.67;;
12048;SDS011;6085;49.452;8.502;2023-05-10T04:24:00;3.67;;;2.97;;
12048;SDS011;6085;49.452;8.502;2023-05-10T04:28:03;3.72;;;3.13;;
12048;SDS011;6085;49.452;8.502;2023-05-10T04:32:06;3.35;;;3.05;;
12048;SDS011;6085;49.452;8.502;2023-05-10T04:36:10;3.42;;;3.13;;
12048;SDS011;6085;49.452;8.502;2023-05-10T04:40:12;3.28;;;3.05;;
12048;SDS011;6085;49.452;8.502;2023-05-10T04:44:14;4.40;;;3.20;;
12048;SDS011;6085;49.452;8.502;2023-05-10T04:48:17;3.47;;;3.28;;
12048;SDS011;6085;49.452;8.502;2023-05-10T04:52:19;3.47;;;3.17;;
12048;SDS011;6085;49.452;8.502;2023-05-10T04:56:21;3.85;;;3.45;;
12048;SDS011;6085;49.452;8.502;2023-05-10T05:00:23;3.50;;;3.20;;
12048;SDS011;6085;49.452;8.502;2023-05-10T05:04:27;3.70;;;3.40;;
12048;SDS011;6085;49.452;8.502;2023-05-10T05:08:29;3.42;;;3.22;;
12048;SDS011;6085;49.452;8.502;2023-05-10T05:12:31;3.63;;;3.33;;
12048;SDS011;6085;49.452;8.502;2023-05-10T05:16:33;4.40;;;4.00;;
12048;SDS011;6085;49.452;8.502;2023-05-10T05:20:37;3.90;;;3.60;;
12048;SDS011;6085;49.452;8.502;2023-05-10T05:24:39;3.90;;;3.60;;
12048;SDS011;6085;49.452;8.502;2023-05-10T05:28:40;4.95;;;4.45;;
12048;SDS011;6085;49.452;8.502;2023-05-10T05:32:43;4.25;;;3.85;;
12048;SDS011;6085;49.452;8.502;2023-05-10T05:36:46;4.88;;;4.38;;
12048;SDS011;6085;49.452;8.502;2023-05-10T05:40:48;4.70;;;4.07;;
12048;SDS011;6085;49.452;8.502;2023-05-10T05:44:50;4.30;;;3.85;;
12048;SDS011;6085;49.452;8.502;2023-05-10T05:48:52;3.97;;;3.58;;
12048;SDS011;6085;49.452;8.502;2023-05-10T05:52:55;4.53;;;3.65;;
12048;SDS011;6085;49.452;8.502;2023-05-10T05:56:57;3.58;;;3.30;;
12048;SDS011;6085;49.452;8.502;2023-05-10T06:01:00;3.42;;;3.10;;
12048;SDS011;6085;49.452;8.502;2023-05-10T06:05:02;4.18;;;2.97;;
12048;SDS011;6085;49.452;8.502;2023-05-10T06:09:06;3.55;;;3.03;;
12048;SDS011;6085;49.452;8.502;2023-05-10T06:13:08;3.95;;;2.90;;
12048;SDS011;6085;49.452;8.502;2023-05-10T06:17:09;5.43;;;3.05;;
12048;SDS011;6085;49.452;8.502;2023-05-10T06:21:11;3.75;;;3.28;;
12048;SDS011;6085;49.452;8.502;2023-05-10T06:25:15;4.40;;;3.47;;
12048;SDS011;6085;49.452;8.502;2023-05-10T06:29:19;4.30;;;4.00;;
12048;SDS011;6085;49.452;8.502;2023-05-10T06:33:21;4.82;;;3.67;;
12048;SDS011;6085;49.452;8.502;2023-05-10T06:37:22;3.72;;;3.47;;
12048;SDS011;6085;49.452;8.502;2023-05-10T06:41:26;5.07;;;3.35;;
12048;SDS011;6085;49.452;8.502;2023-05-10T06:45:28;3.70;;;3.40;;
12048;SDS011;6085;49.452;8.502;2023-05-10T06:49:29;3.28;;;3.03;;
12048;SDS011;6085;49.452;8.502;2023-05-10T06:53:31;2.47;;;2.38;;
12048;SDS011;6085;49.452;8.502;2023-05-10T06:57:35;2.70;;;2.50;;
12048;SDS011;6085;49.452;8.502;2023-05-10T07:01:37;2.53;;;2.33;;
12048;SDS011;6085;49.452;8.502;2023-05-10T07:05:39;2.50;;;2.30;;
12048;SDS011;6085;49.452;8.502;2023-05-10T07:09:41;3.78;;;2.42;;
12048;SDS011;6085;49.452;8.502;2023-05-10T07:13:44;2.38;;;2.20;;
12048;SDS011;6085;49.452;8.502;2023-05-10T07:17:46;2.40;;;2.20;;
12048;SDS011;6085;49.452;8.502;2023-05-10T07:21:48;2.00;;;1.90;;
12048;SDS011;6085;49.452;8.502;2023-05-10T07:25:51;2.33;;;2.13;;
12048;SDS011;6085;49.452;8.502;2023-05-10T07:29:54;2.58;;;1.73;;
12048;SDS011;6085;49.452;8.502;2023-05-10T07:33:56;2.00;;;1.85;;
12048;SDS011;6085;49.452;8.502;2023-05-10T07:37:58;2.03;;;1.92;;
12048;SDS011;6085;49.452;8.502;2023-05-10T07:42:01;1.90;;;1.80;;
12048;SDS011;6085;49.452;8.502;2023-05-10T07:46:04;1.55;;;1.45;;
12048;SDS011;6085;49.452;8.502;2023-05-10T07:50:07;1.73;;;1.63;;
12048;SDS011;6085;49.452;8.502;2023-05-10T07:54:09;1.70;;;1.60;;
12048;SDS011;6085;49.452;8.502;2023-05-10T07:58:12;2.55;;;1.63;;
12048;SDS011;6085;49.452;8.502;2023-05-10T08:02:15;1.67;;;1.58;;
12048;SDS011;6085;49.452;8.502;2023-05-10T08:06:17;2.60;;;1.48;;
12048;SDS011;6085;49.452;8.502;2023-05-10T08:10:20;2.88;;;1.30;;
12048;SDS011;6085;49.452;8.502;2023-05-10T08:14:22;1.42;;;1.40;;
12048;SDS011;6085;49.452;8.502;2023-05-10T08:18:25;1.80;;;1.70;;
12048;SDS011;6085;49.452;8.502;2023-05-10T08:22:27;2.60;;;1.40;;
12048;SDS011;6085;49.452;8.502;2023-05-10T08:26:29;1.30;;;1.20;;
12048;SDS011;6085;49.452;8.502;2023-05-10T08:30:32;2.05;;;1.42;;
12048;SDS011;6085;49.452;8.502;2023-05-10T08:34:35;1.95;;;1.15;;
12048;SDS011;6085;49.452;8.502;2023-05-10T08:38:37;1.10;;;1.00;;
12048;SDS011;6085;49.452;8.502;2023-05-10T08:42:40;1.30;;;1.20;;
12048;SDS011;6085;49.452;8.502;2023-05-10T08:46:48;1.30;;;1.20;;
12048;SDS011;6085;49.452;8.502;2023-05-10T08:50:56;1.58;;;1.20;;
12048;SDS011;6085;49.452;8.502;2023-05-10T08:55:02;1.85;;;1.20;;
12048;SDS011;6085;49.452;8.502;2023-05-10T08:59:04;1.40;;;1.30;;
12048;SDS011;6085;49.452;8.502;2023-05-10T09:03:06;1.42;;;1.30;;
12048;SDS011;6085;49.452;8.502;2023-05-10T09:07:09;1.50;;;1.42;;
12048;SDS011;6085;49.452;8.502;2023-05-10T09:11:12;1.25;;;1.15;;
12048;SDS011;6085;49.452;8.502;2023-05-10T09:15:15;1.35;;;1.02;;
12048;SDS011;6085;49.452;8.502;2023-05-10T09:19:19;1.08;;;1.08;;
12048;SDS011;6085;49.452;8.502;2023-05-10T09:23:22;1.10;;;1.10;;
12048;SDS011;6085;49.452;8.502;2023-05-10T09:27:31;1.20;;;1.20;;
12048;SDS011;6085;49.452;8.502;2023-05-10T09:31:46;1.13;;;1.13;;
12048;SDS011;6085;49.452;8.502;2023-05-10T09:35:51;1.40;;;1.30;;
12048;SDS011;6085;49.452;8.502;2023-05-10T09:39:55;1.20;;;1.20;;
12048;SDS011;6085;49.452;8.502;2023-05-10T09:43:57;0.90;;;0.90;;
12048;SDS011;6085;49.452;8.502;2023-05-10T09:47:59;0.80;;;0.80;;
12048;SDS011;6085;49.452;8.502;2023-05-10T09:52:03;0.90;;;0.77;;
12048;SDS011;6085;49.452;8.502;2023-05-10T09:56:07;1.02;;;0.90;;
12048;SDS011;6085;49.452;8.502;2023-05-10T10:00:09;1.48;;;1.05;;
12048;SDS011;6085;49.452;8.502;2023-05-10T10:04:17;1.65;;;1.30;;
12048;SDS011;6085;49.452;8.502;2023-05-10T10:08:21;1.08;;;1.00;;
12048;SDS011;6085;49.452;8.502;2023-05-10T10:12:24;1.00;;;1.00;;
12048;SDS011;6085;49.452;8.502;2023-05-10T10:16:27;1.35;;;0.70;;
12048;SDS011;6085;49.452;8.502;2023-05-10T10:20:30;1.05;;;0.90;;
12048;SDS011;6085;49.452;8.502;2023-05-10T10:24:32;1.17;;;0.70;;
12048;SDS011;6085;49.452;8.502;2023-05-10T10:28:37;0.80;;;0.80;;
12048;SDS011;6085;49.452;8.502;2023-05-10T10:41:49;1.30;;;1.20;;
12048;SDS011;6085;49.452;8.502;2023-05-10T10:46:12;1.08;;;1.08;;
12048;SDS011;6085;49.452;8.502;2023-05-10T10:50:15;1.30;;;1.20;;
12048;SDS011;6085;49.452;8.502;2023-05-10T10:54:20;1.15;;;0.90;;
12048;SDS011;6085;49.452;8.502;2023-05-10T10:58:29;0.85;;;0.85;;
12048;SDS011;6085;49.452;8.502;2023-05-10T11:02:34;1.35;;;1.05;;
12048;SDS011;6085;49.452;8.502;2023-05-10T11:06:45;0.90;;;0.80;;
12048;SDS011;6085;49.452;8.502;2023-05-10T11:15:08;0.70;;;0.70;;
12048;SDS011;6085;49.452;8.502;2023-05-10T11:19:12;0.70;;;0.70;;
12048;SDS011;6085;49.452;8.502;2023-05-10T11:23:15;1.02;;;0.70;;
12048;SDS011;6085;49.452;8.502;2023-05-10T11:27:18;1.90;;;0.70;;
12048;SDS011;6085;49.452;8.502;2023-05-10T11:31:21;0.45;;;0.45;;
12048;SDS011;6085;49.452;8.502;2023-05-10T11:35:28;0.82;;;0.60;;
12048;SDS011;6085;49.452;8.502;2023-05-10T11:39:30;1.55;;;0.60;;
12048;SDS011;6085;49.452;8.502;2023-05-10T11:43:33;1.05;;;0.57;;
12048;SDS011;6085;49.452;8.502;2023-05-10T11:47:36;0.82;;;0.80;;
12048;SDS011;6085;49.452;8.502;2023-05-10T11:51:42;1.08;;;0.70;;
12048;SDS011;6085;49.452;8.502;2023-05-10T11:55:44;1.08;;;0.80;;
12048;SDS011;6085;49.452;8.502;2023-05-10T11:59:46;1.13;;;0.85;;
12048;SDS011;6085;49.452;8.502;2023-05-10T12:03:49;1.15;;;1.05;;
12048;SDS011;6085;49.452;8.502;2023-05-10T12:12:15;1.92;;;1.00;;
12048;SDS011;6085;49.452;8.502;2023-05-10T12:16:19;1.10;;;0.70;;
12048;SDS011;6085;49.452;8.502;2023-05-10T12:20:22;1.20;;;0.88;;
12048;SDS011;6085;49.452;8.502;2023-05-10T12:24:27;2.17;;;0.82;;
12048;SDS011;6085;49.452;8.502;2023-05-10T12:28:29;0.88;;;0.77;;
12048;SDS011;6085;49.452;8.502;2023-05-10T12:32:38;1.65;;;0.90;;
12048;SDS011;6085;49.452;8.502;2023-05-10T12:36:41;1.13;;;0.80;;
12048;SDS011;6085;49.452;8.502;2023-05-10T12:40:44;3.03;;;1.00;;
12048;SDS011;6085;49.452;8.502;2023-05-10T12:44:46;2.10;;;0.90;;
12048;SDS011;6085;49.452;8.502;2023-05-10T12:48:48;1.35;;;0.93;;
12048;SDS011;6085;49.452;8.502;2023-05-10T12:52:54;0.90;;;0.85;;
12048;SDS011;6085;49.452;8.502;2023-05-10T12:56:58;1.05;;;0.95;;
12048;SDS011;6085;49.452;8.502;2023-05-10T13:01:00;1.33;;;1.00;;
12048;SDS011;6085;49.452;8.502;2023-05-10T13:05:02;2.60;;;1.10;;
12048;SDS011;6085;49.452;8.502;2023-05-10T13:09:05;1.02;;;0.80;;
12048;SDS011;6085;49.452;8.502;2023-05-10T13:13:10;3.03;;;0.90;;
12048;SDS011;6085;49.452;8.502;2023-05-10T13:17:12;2.83;;;0.90;;
12048;SDS011;6085;49.452;8.502;2023-05-10T13:21:14;1.33;;;0.70;;
12048;SDS011;6085;49.452;8.502;2023-05-10T13:25:16;1.90;;;0.82;;
12048;SDS011;6085;49.452;8.502;2023-05-10T13:29:20;1.42;;;0.55;;
12048;SDS011;6085;49.452;8.502;2023-05-10T13:33:22;3.13;;;0.73;;
12048;SDS011;6085;49.452;8.502;2023-05-10T13:37:24;1.00;;;0.70;;
12048;SDS011;6085;49.452;8.502;2023-05-10T13:41:26;1.15;;;0.57;;
12048;SDS011;6085;49.452;8.502;2023-05-10T13:45:30;1.15;;;0.70;;
12048;SDS011;6085;49.452;8.502;2023-05-10T13:49:34;2.28;;;0.70;;
12048;SDS011;6085;49.452;8.502;2023-05-10T13:53:36;2.50;;;0.68;;
12048;SDS011;6085;49.452;8.502;2023-05-10T13:57:38;1.42;;;0.65;;
12048;SDS011;6085;49.452;8.502;2023-05-10T14:01:41;2.40;;;0.60;;
12048;SDS011;6085;49.452;8.502;2023-05-10T14:05:43;0.90;;;0.60;;
12048;SDS011;6085;49.452;8.502;2023-05-10T14:09:47;1.10;;;0.80;;
12048;SDS011;6085;49.452;8.502;2023-05-10T14:13:49;0.68;;;0.55;;
12048;SDS011;6085;49.452;8.502;2023-05-10T14:17:52;1.27;;;0.68;;
12048;SDS011;6085;49.452;8.502;2023-05-10T14:21:54;2.05;;;0.82;;
12048;SDS011;6085;49.452;8.502;2023-05-10T14:25:56;1.10;;;0.60;;
12048;SDS011;6085;49.452;8.502;2023-05-10T14:29:58;0.88;;;0.70;;
12048;SDS011;6085;49.452;8.502;2023-05-10T14:34:02;0.40;;;0.40;;
12048;SDS011;6085;49.452;8.502;2023-05-10T14:38:03;1.85;;;0.50;;
12048;SDS011;6085;49.452;8.502;2023-05-10T14:42:05;0.73;;;0.50;;
12048;SDS011;6085;49.452;8.502;2023-05-10T14:46:07;0.90;;;0.60;;
12048;SDS011;6085;49.452;8.502;2023-05-10T14:50:11;1.35;;;0.60;;
12048;SDS011;6085;49.452;8.502;2023-05-10T14:54:13;0.55;;;0.47;;
12048;SDS011;6085;49.452;8.502;2023-05-10T14:58:15;1.17;;;0.60;;
12048;SDS011;6085;49.452;8.502;2023-05-10T15:02:17;1.65;;;0.38;;
12048;SDS011;6085;49.452;8.502;2023-05-10T15:06:25;1.30;;;0.70;;
12048;SDS011;6085;49.452;8.502;2023-05-10T15:10:32;0.73;;;0.55;;
12048;SDS011;6085;49.452;8.502;2023-05-10T15:14:35;0.65;;;0.45;;
12048;SDS011;6085;49.452;8.502;2023-05-10T15:18:37;1.17;;;0.47;;
12048;SDS011;6085;49.452;8.502;2023-05-10T15:22:40;0.38;;;0.38;;
12048;SDS011;6085;49.452;8.502;2023-05-10T15:26:42;1.85;;;0.57;;
12048;SDS011;6085;49.452;8.502;2023-05-10T15:30:44;1.75;;;0.80;;
12048;SDS011;6085;49.452;8.502;2023-05-10T15:34:46;0.38;;;0.38;;
12048;SDS011;6085;49.452;8.502;2023-05-10T15:38:49;1.00;;;0.50;;
12048;SDS011;6085;49.452;8.502;2023-05-10T15:42:52;0.98;;;0.60;;
12048;SDS011;6085;49.452;8.502;2023-05-10T15:46:53;0.45;;;0.45;;
12048;SDS011;6085;49.452;8.502;2023-05-10T15:50:55;2.03;;;0.50;;
12048;SDS011;6085;49.452;8.502;2023-05-10T15:54:59;1.15;;;0.52;;
12048;SDS011;6085;49.452;8.502;2023-05-10T15:59:01;0.57;;;0.50;;
12048;SDS011;6085;49.452;8.502;2023-05-10T16:03:03;1.88;;;0.60;;
12048;SDS011;6085;49.452;8.502;2023-05-10T16:07:05;0.82;;;0.50;;
12048;SDS011;6085;49.452;8.502;2023-05-10T16:11:09;0.82;;;0.60;;
12048;SDS011;6085;49.452;8.502;2023-05-10T16:15:11;0.77;;;0.40;;
12048;SDS011;6085;49.452;8.502;2023-05-10T16:19:13;0.80;;;0.60;;
12048;SDS011;6085;49.452;8.502;2023-05-10T16:23:15;1.17;;;0.82;;
12048;SDS011;6085;49.452;8.502;2023-05-10T16:27:18;0.95;;;0.60;;
12048;SDS011;6085;49.452;8.502;2023-05-10T16:31:20;0.98;;;0.60;;
12048;SDS011;6085;49.452;8.502;2023-05-10T16:35:22;0.40;;;0.40;;
12048;SDS011;6085;49.452;8.502;2023-05-10T16:39:24;1.27;;;0.73;;
12048;SDS011;6085;49.452;8.502;2023-05-10T16:43:27;0.60;;;0.60;;
12048;SDS011;6085;49.452;8.502;2023-05-10T16:47:29;1.17;;;0.63;;
12048;SDS011;6085;49.452;8.502;2023-05-10T16:51:31;0.60;;;0.52;;
12048;SDS011;6085;49.452;8.502;2023-05-10T16:55:33;0.70;;;0.50;;
12048;SDS011;6085;49.452;8.502;2023-05-10T16:59:36;0.68;;;0.65;;
12048;SDS011;6085;49.452;8.502;2023-05-10T17:03:38;0.70;;;0.60;;
12048;SDS011;6085;49.452;8.502;2023-05-10T17:07:40;1.33;;;0.68;;
12048;SDS011;6085;49.452;8.502;2023-05-10T17:11:45;1.13;;;0.60;;
12048;SDS011;6085;49.452;8.502;2023-05-10T17:15:49;0.52;;;0.50;;
12048;SDS011;6085;49.452;8.502;2023-05-10T17:19:50;0.63;;;0.60;;
12048;SDS011;6085;49.452;8.502;2023-05-10T17:23:52;1.10;;;0.60;;
12048;SDS011;6085;49.452;8.502;2023-05-10T17:27:54;0.75;;;0.75;;
12048;SDS011;6085;49.452;8.502;2023-05-10T17:31:58;1.00;;;0.68;;
12048;SDS011;6085;49.452;8.502;2023-05-10T17:36:00;0.75;;;0.75;;
12048;SDS011;6085;49.452;8.502;2023-05-10T17:40:03;2.03;;;0.77;;
12048;SDS011;6085;49.452;8.502;2023-05-10T17:44:06;0.70;;;0.60;;
12048;SDS011;6085;49.452;8.502;2023-05-10T17:48:10;1.08;;;0.55;;
12048;SDS011;6085;49.452;8.502;2023-05-10T17:52:12;1.08;;;0.60;;
12048;SDS011;6085;49.452;8.502;2023-05-10T17:56:15;0.55;;;0.55;;
12048;SDS011;6085;49.452;8.502;2023-05-10T18:00:17;2.25;;;0.95;;
12048;SDS011;6085;49.452;8.502;2023-05-10T18:04:20;0.93;;;0.70;;
12048;SDS011;6085;49.452;8.502;2023-05-10T18:08:22;0.68;;;0.52;;
12048;SDS011;6085;49.452;8.502;2023-05-10T18:12:26;0.70;;;0.60;;
12048;SDS011;6085;49.452;8.502;2023-05-10T18:16:28;2.22;;;0.50;;
12048;SDS011;6085;49.452;8.502;2023-05-10T18:20:31;1.15;;;0.88;;
12048;SDS011;6085;49.452;8.502;2023-05-10T18:24:33;0.77;;;0.73;;
12048;SDS011;6085;49.452;8.502;2023-05-10T18:28:35;0.93;;;0.60;;
12048;SDS011;6085;49.452;8.502;2023-05-10T18:32:37;0.57;;;0.57;;
12048;SDS011;6085;49.452;8.502;2023-05-10T18:36:41;1.35;;;0.70;;
12048;SDS011;6085;49.452;8.502;2023-05-10T18:40:43;0.90;;;0.60;;
12048;SDS011;6085;49.452;8.502;2023-05-10T18:44:45;0.65;;;0.60;;
12048;SDS011;6085;49.452;8.502;2023-05-10T18:48:47;0.73;;;0.70;;
12048;SDS011;6085;49.452;8.502;2023-05-10T18:52:50;0.82;;;0.52;;
12048;SDS011;6085;49.452;8.502;2023-05-10T18:56:52;1.90;;;0.63;;
12048;SDS011;6085;49.452;8.502;2023-05-10T19:00:56;0.60;;;0.60;;
12048;SDS011;6085;49.452;8.502;2023-05-10T19:04:58;1.83;;;0.93;;
12048;SDS011;6085;49.452;8.502;2023-05-10T19:09:02;1.10;;;0.80;;
12048;SDS011;6085;49.452;8.502;2023-05-10T19:13:05;1.52;;;0.70;;
12048;SDS011;6085;49.452;8.502;2023-05-10T19:17:06;1.52;;;0.65;;
12048;SDS011;6085;49.452;8.502;2023-05-10T19:21:08;0.63;;;0.60;;
12048;SDS011;6085;49.452;8.502;2023-05-10T19:25:12;0.63;;;0.63;;
12048;SDS011;6085;49.452;8.502;2023-05-10T19:29:15;0.70;;;0.70;;
12048;SDS011;6085;49.452;8.502;2023-05-10T19:33:17;1.27;;;0.55;;
12048;SDS011;6085;49.452;8.502;2023-05-10T19:37:20;0.68;;;0.68;;
12048;SDS011;6085;49.452;8.502;2023-05-10T19:41:23;1.85;;;0.63;;
12048;SDS011;6085;49.452;8.502;2023-05-10T19:45:25;0.75;;;0.70;;
12048;SDS011;6085;49.452;8.502;2023-05-10T19:49:27;0.73;;;0.73;;
12048;SDS011;6085;49.452;8.502;2023-05-10T19:53:29;0.50;;;0.50;;
12048;SDS011;6085;49.452;8.502;2023-05-10T19:57:33;0.55;;;0.55;;
12048;SDS011;6085;49.452;8.502;2023-05-10T20:01:35;0.75;;;0.75;;
12048;SDS011;6085;49.452;8.502;2023-05-10T20:05:37;0.98;;;0.70;;
12048;SDS011;6085;49.452;8.502;2023-05-10T20:09:40;1.58;;;0.80;;
12048;SDS011;6085;49.452;8.502;2023-05-10T20:13:44;2.22;;;1.27;;
12048;SDS011;6085;49.452;8.502;2023-05-10T20:17:46;1.48;;;0.80;;
12048;SDS011;6085;49.452;8.502;2023-05-10T20:21:50;0.73;;;0.73;;
12048;SDS011;6085;49.452;8.502;2023-05-10T20:25:54;1.95;;;0.80;;
12048;SDS011;6085;49.452;8.502;2023-05-10T20:29:58;1.35;;;0.70;;
12048;SDS011;6085;49.452;8.502;2023-05-10T20:34:00;2.45;;;0.90;;
12048;SDS011;6085;49.452;8.502;2023-05-10T20:38:02;0.77;;;0.73;;
12048;SDS011;6085;49.452;8.502;2023-05-10T20:42:04;0.80;;;0.80;;
12048;SDS011;6085;49.452;8.502;2023-05-10T20:46:07;0.70;;;0.70;;
12048;SDS011;6085;49.452;8.502;2023-05-10T20:50:09;0.95;;;0.70;;
12048;SDS011;6085;49.452;8.502;2023-05-10T20:54:11;0.98;;;0.90;;
12048;SDS011;6085;49.452;8.502;2023-05-10T20:58:13;0.70;;;0.70;;
12048;SDS011;6085;49.452;8.502;2023-05-10T21:02:17;1.05;;;0.93;;
12048;SDS011;6085;49.452;8.502;2023-05-10T21:06:18;0.90;;;0.70;;
12048;SDS011;6085;49.452;8.502;2023-05-10T21:10:20;0.70;;;0.70;;
12048;SDS011;6085;49.452;8.502;2023-05-10T21:14:24;1.80;;;1.10;;
12048;SDS011;6085;49.452;8.502;2023-05-10T21:18:27;0.60;;;0.60;;
12048;SDS011;6085;49.452;8.502;2023-05-10T21:22:29;0.80;;;0.80;;
12048;SDS011;6085;49.452;8.502;2023-05-10T21:26:30;1.23;;;0.70;;
12048;SDS011;6085;49.452;8.502;2023-05-10T21:30:32;0.70;;;0.70;;
12048;SDS011;6085;49.452;8.502;2023-05-10T21:34:36;1.83;;;1.05;;
12048;SDS011;6085;49.452;8.502;2023-05-10T21:38:38;1.05;;;0.98;;
12048;SDS011;6085;49.452;8.502;2023-05-10T21:42:43;0.90;;;0.90;;
12048;SDS011;6085;49.452;8.502;2023-05-10T21:46:48;0.90;;;0.90;;
12048;SDS011;6085;49.452;8.502;2023-05-10T21:50:51;0.70;;;0.70;;
12048;SDS011;6085;49.452;8.502;2023-05-10T21:54:53;0.70;;;0.70;;
12048;SDS011;6085;49.452;8.502;2023-05-10T21:58:55;1.48;;;0.80;;
12048;SDS011;6085;49.452;8.502;2023-05-10T22:02:57;0.63;;;0.63;;
12048;SDS011;6085;49.452;8.502;2023-05-10T22:07:00;0.70;;;0.70;;
12048;SDS011;6085;49.452;8.502;2023-05-10T22:11:02;0.63;;;0.63;;
12048;SDS011;6085;49.452;8.502;2023-05-10T22:15:04;0.82;;;0.77;;
12048;SDS011;6085;49.452;8.502;2023-05-10T22:19:06;0.80;;;0.80;;
12048;SDS011;6085;49.452;8.502;2023-05-10T22:23:10;0.95;;;0.80;;
12048;SDS011;6085;49.452;8.502;2023-05-10T22:27:12;0.82;;;0.82;;
12048;SDS011;6085;49.452;8.502;2023-05-10T22:31:14;1.15;;;0.70;;
12048;SDS011;6085;49.452;8.502;2023-05-10T22:35:16;0.90;;;0.90;;
12048;SDS011;6085;49.452;8.502;2023-05-10T22:39:19;1.10;;;1.00;;
12048;SDS011;6085;49.452;8.502;2023-05-10T22:43:21;0.95;;;0.88;;
12048;SDS011;6085;49.452;8.502;2023-05-10T22:47:23;1.25;;;1.00;;
12048;SDS011;6085;49.452;8.502;2023-05-10T22:51:25;2.58;;;1.27;;
12048;SDS011;6085;49.452;8.502;2023-05-10T22:55:28;1.20;;;0.80;;
12048;SDS011;6085;49.452;8.502;2023-05-10T22:59:30;1.00;;;1.00;;
12048;SDS011;6085;49.452;8.502;2023-05-10T23:03:33;1.67;;;0.95;;
12048;SDS011;6085;49.452;8.502;2023-05-10T23:07:35;2.42;;;0.85;;
12048;SDS011;6085;49.452;8.502;2023-05-10T23:11:38;1.83;;;1.05;;
12048;SDS011;6085;49.452;8.502;2023-05-10T23:15:40;1.08;;;1.00;;
12048;SDS011;6085;49.452;8.502;2023-05-10T23:19:42;1.25;;;1.15;;
12048;SDS011;6085;49.452;8.502;2023-05-10T23:23:44;4.43;;;4.03;;
12048;SDS011;6085;49.452;8.502;2023-05-10T23:27:48;2.10;;;1.90;;
12048;SDS011;6085;49.452;8.502;2023-05-10T23:31:50;1.30;;;1.30;;
12048;SDS011;6085;49.452;8.502;2023-05-10T23:35:52;1.33;;;1.23;;
12048;SDS011;6085;49.452;8.502;2023-05-10T23:39:54;1.10;;;1.00;;
12048;SDS011;6085;49.452;8.502;2023-05-10T23:43:57;1.10;;;1.10;;
12048;SDS011;6085;49.452;8.502;2023-05-10T23:47:59;1.15;;;1.13;;
12048;SDS011;6085;49.452;8.502;2023-05-10T23:52:01;1.13;;;1.10;;
12048;SDS011;6085;49.452;8.502;2023-05-10T23:56:03;1.05;;;0.95;;
